Аэропорт
Якутск (UEEE)

 UEEE / YKS
ЗЦ Хабаровск
Якутск (UEEE)
Якутск (UEEE)
 62.09330, 129.77100  / 325 ft

 UEEE 111630Z 36002MPS 2100 BR NSC M38/M42 Q1024 R23L/450155 NOSIG RMK QFE759
 UEEE 110800Z 1109/1215 36003MPS 3200 -SN BR NSC TEMPO 1109/1115 0800 FG VV007 TEMPO 1115/1202 0300 FG VV003
AIP 1605
показать схемы
Название сценария Тип сценария Flight Simulator 9 Flight Simulator X Prepar3D v2 Prepar3D v3 Prepar3D v4 xPlane
ueee-scenery-fs9-1404 бесплатный
ueee-scenery-fsx-1405 бесплатный
ueee-scenery-p3d-1405 бесплатный
ueee-scenery-xpl-1210 бесплатный
ueee-scenery-xpl-1407 бесплатный


2018 © VATRUS division